Time;durP1;ratioP1;P1;durP2;ratioP2;P2;SDS_P1;SDS_P2;PMS_P1;PMS_P2;Temp;Humidity;BMP_temperature;BMP_pressure;BME280_temperature;BME280_humidity;BME280_pressure;Samples;Min_cycle;Max_cycle;Signal;HPM_P1;HPM_P2
2022/03/30 00:01:40;;;;;;;36.00;15.50;;;5.90;99.90;;;;;;5023106;28;20393;-79
2022/03/30 00:04:05;;;;;;;29.92;14.88;;;5.90;99.90;;;;;;5030232;28;20045;-78
2022/03/30 00:06:31;;;;;;;34.80;15.88;;;5.90;99.90;;;;;;5021907;28;20026;-79
2022/03/30 00:09:01;;;;;;;46.10;17.65;;;5.80;99.90;;;;;;5015931;28;20108;-79
2022/03/30 00:11:26;;;;;;;33.03;15.50;;;5.80;99.90;;;;;;5023046;28;20056;-78
2022/03/30 00:14:02;;;;;;;35.25;15.43;;;5.80;99.90;;;;;;5020844;28;20067;-79
2022/03/30 00:16:27;;;;;;;33.10;15.23;;;5.80;99.90;;;;;;5021095;28;20037;-78
2022/03/30 00:18:53;;;;;;;40.70;17.63;;;5.80;99.90;;;;;;5027486;28;20429;-79
2022/03/30 00:21:21;;;;;;;36.70;16.83;;;5.80;99.90;;;;;;5029067;28;20100;-79
2022/03/30 00:23:47;;;;;;;35.45;15.60;;;5.80;99.90;;;;;;5018381;28;20155;-78
2022/03/30 00:26:19;;;;;;;38.30;18.15;;;5.90;99.90;;;;;;5022291;28;20104;-79
2022/03/30 00:28:44;;;;;;;45.03;17.75;;;5.80;99.90;;;;;;5030425;28;20038;-79
2022/03/30 00:31:11;;;;;;;37.45;15.70;;;5.90;99.90;;;;;;5030414;28;20033;-79
2022/03/30 00:33:37;;;;;;;37.22;17.35;;;5.90;99.90;;;;;;5006990;28;20434;-79
2022/03/30 00:36:03;;;;;;;38.05;17.48;;;5.90;99.90;;;;;;5030343;28;20033;-79
2022/03/30 00:38:29;;;;;;;42.53;17.05;;;5.90;99.90;;;;;;5028329;28;20052;-79
2022/03/30 00:40:54;;;;;;;36.67;15.88;;;5.90;99.90;;;;;;5016619;28;20029;-81
2022/03/30 00:43:23;;;;;;;34.78;16.88;;;5.90;99.90;;;;;;5032281;28;20041;-81
2022/03/30 00:45:48;;;;;;;40.47;17.60;;;5.90;99.90;;;;;;5027211;28;20037;-81
2022/03/30 00:48:14;;;;;;;35.22;17.40;;;5.90;99.90;;;;;;5026981;28;20458;-81
2022/03/30 00:50:45;;;;;;;33.22;16.27;;;5.90;99.90;;;;;;5028315;28;20025;-79
2022/03/30 00:53:18;;;;;;;47.05;18.98;;;5.80;99.90;;;;;;5018470;28;20033;-78
2022/03/30 00:55:44;;;;;;;33.38;16.73;;;5.80;99.90;;;;;;5031522;28;20061;-78
2022/03/30 00:58:11;;;;;;;32.58;16.55;;;5.80;99.90;;;;;;5025289;28;20065;-78
2022/03/30 01:00:37;;;;;;;37.00;17.45;;;5.70;99.90;;;;;;5020645;28;20461;-79
2022/03/30 01:03:05;;;;;;;36.42;16.75;;;5.70;99.90;;;;;;5025541;28;20034;-79
2022/03/30 01:05:36;;;;;;;37.42;17.25;;;5.60;99.90;;;;;;5025033;28;20053;-78
2022/03/30 01:08:02;;;;;;;37.88;16.77;;;5.60;99.90;;;;;;5022982;28;20038;-78
2022/03/30 01:10:31;;;;;;;36.25;16.83;;;5.50;99.90;;;;;;5030618;28;20036;-78
2022/03/30 01:13:00;;;;;;;34.83;16.00;;;5.40;99.90;;;;;;5025247;28;20557;-78
2022/03/30 01:15:31;;;;;;;36.88;15.50;;;5.30;99.90;;;;;;5029330;28;20561;-78
2022/03/30 01:17:57;;;;;;;45.33;18.87;;;5.30;99.90;;;;;;5028406;28;20499;-78
2022/03/30 01:20:28;;;;;;;40.50;16.88;;;5.20;99.90;;;;;;5015306;28;20034;-78
2022/03/30 01:22:57;;;;;;;46.53;17.88;;;5.30;99.90;;;;;;5022481;28;20053;-78
2022/03/30 01:25:32;;;;;;;34.00;16.52;;;5.20;99.90;;;;;;5024512;28;20036;-79
2022/03/30 01:28:00;;;;;;;43.67;17.55;;;5.20;99.90;;;;;;5027042;28;20076;-79
2022/03/30 01:33:13;;;;;;;39.67;16.80;;;5.10;99.90;;;;;;5014986;28;20119;-79
2022/03/30 01:35:40;;;;;;;35.53;15.88;;;5.10;99.90;;;;;;5021252;28;20116;-79
2022/03/30 01:38:05;;;;;;;36.50;15.55;;;5.10;99.90;;;;;;5024708;28;20022;-79
2022/03/30 01:40:31;;;;;;;39.03;16.13;;;5.10;99.90;;;;;;5028867;28;20033;-79
2022/03/30 01:42:57;;;;;;;33.17;16.38;;;5.10;99.90;;;;;;5029832;28;20033;-77
2022/03/30 01:45:22;;;;;;;38.60;17.27;;;5.00;99.90;;;;;;5024642;28;20049;-78
2022/03/30 01:47:50;;;;;;;45.03;18.00;;;5.00;99.90;;;;;;5020012;28;20022;-78
2022/03/30 01:50:18;;;;;;;38.10;17.80;;;5.00;99.90;;;;;;5025137;28;20029;-78
2022/03/30 01:52:45;;;;;;;38.38;16.48;;;5.10;99.90;;;;;;5026462;28;20017;-78
2022/03/30 01:55:13;;;;;;;42.70;17.38;;;5.00;99.90;;;;;;5016412;28;20033;-78
2022/03/30 01:57:41;;;;;;;33.90;15.75;;;5.10;99.90;;;;;;5024865;28;20057;-78
2022/03/30 02:00:15;;;;;;;38.03;17.20;;;5.10;99.90;;;;;;5028568;28;20067;-79
2022/03/30 02:02:41;;;;;;;36.80;15.68;;;5.10;99.90;;;;;;5022160;28;20440;-79
2022/03/30 02:05:18;;;;;;;32.25;14.90;;;5.10;99.90;;;;;;5020835;28;20029;-78
2022/03/30 02:07:44;;;;;;;39.80;15.38;;;5.10;99.90;;;;;;5027081;28;20116;-79
2022/03/30 02:10:11;;;;;;;40.58;16.15;;;5.10;99.90;;;;;;5023294;28;20148;-80
2022/03/30 02:12:41;;;;;;;35.72;15.45;;;5.10;99.90;;;;;;5030383;28;20433;-80
2022/03/30 02:15:10;;;;;;;42.55;16.67;;;5.00;99.90;;;;;;5029228;28;20041;-79
2022/03/30 02:17:37;;;;;;;38.97;15.45;;;5.00;99.90;;;;;;5026325;28;20499;-78
2022/03/30 02:20:03;;;;;;;38.63;15.13;;;5.00;99.90;;;;;;5021702;28;20437;-79
2022/03/30 02:22:29;;;;;;;31.80;15.10;;;5.00;99.90;;;;;;5021430;28;20049;-79
2022/03/30 02:24:57;;;;;;;38.80;15.50;;;4.90;99.90;;;;;;5015260;28;20044;-79
2022/03/30 02:27:23;;;;;;;35.33;16.45;;;4.90;99.90;;;;;;5012855;28;20072;-80
2022/03/30 02:29:51;;;;;;;43.67;16.30;;;4.90;99.90;;;;;;5020908;28;20050;-80
2022/03/30 02:32:22;;;;;;;40.90;17.80;;;4.80;99.90;;;;;;5342489;22;20088;-88
2022/03/30 02:34:48;;;;;;;43.63;16.88;;;4.80;99.90;;;;;;4997135;28;20084;-88
2022/03/30 02:37:13;;;;;;;35.72;15.95;;;4.70;99.90;;;;;;5012320;28;20029;-88
2022/03/30 02:39:39;;;;;;;36.63;16.67;;;4.70;99.90;;;;;;5011479;28;20118;-88
2022/03/30 02:42:07;;;;;;;38.72;16.42;;;4.60;99.90;;;;;;5012476;28;20453;-88
2022/03/30 02:44:33;;;;;;;34.95;16.83;;;4.60;99.90;;;;;;5011206;28;20469;-88
2022/03/30 02:47:00;;;;;;;35.50;15.05;;;4.50;99.90;;;;;;5012907;28;20032;-88
2022/03/30 02:49:26;;;;;;;36.75;16.20;;;4.50;99.90;;;;;;5013334;28;20388;-88
2022/03/30 02:51:52;;;;;;;35.67;16.40;;;4.40;99.90;;;;;;5013335;28;20026;-88
2022/03/30 02:54:18;;;;;;;41.20;16.23;;;4.40;99.90;;;;;;5011295;28;20485;-89
2022/03/30 02:56:43;;;;;;;40.92;16.25;;;4.30;99.90;;;;;;5012323;28;20065;-89
2022/03/30 02:59:09;;;;;;;49.10;17.38;;;4.30;99.90;;;;;;5012031;28;20033;-88
2022/03/30 03:01:34;;;;;;;34.42;15.93;;;4.20;99.90;;;;;;5010236;28;20477;-88
2022/03/30 03:04:00;;;;;;;42.53;16.77;;;4.10;99.90;;;;;;5008684;28;20117;-88
2022/03/30 03:06:25;;;;;;;40.22;16.42;;;4.10;99.90;;;;;;5012364;28;20022;-88
2022/03/30 03:08:51;;;;;;;37.45;16.63;;;4.00;99.90;;;;;;5012141;28;20076;-88
2022/03/30 03:11:17;;;;;;;42.67;17.13;;;3.90;99.90;;;;;;5011656;28;20026;-88
2022/03/30 03:13:42;;;;;;;39.08;17.00;;;3.80;99.90;;;;;;5010535;28;20034;-88
2022/03/30 03:16:08;;;;;;;47.45;19.17;;;3.70;99.90;;;;;;5011201;28;20078;-88
2022/03/30 03:18:35;;;;;;;40.65;16.15;;;3.70;99.90;;;;;;5011769;28;20485;-88
2022/03/30 03:21:01;;;;;;;41.03;16.33;;;3.70;99.90;;;;;;5012053;28;20026;-88
2022/03/30 03:23:26;;;;;;;36.22;16.52;;;3.60;99.90;;;;;;5010217;28;20513;-88
2022/03/30 03:25:53;;;;;;;45.28;18.27;;;3.60;99.90;;;;;;5011746;28;20014;-88
2022/03/30 03:28:19;;;;;;;38.92;16.35;;;3.50;99.90;;;;;;5012455;28;20733;-88
2022/03/30 03:30:44;;;;;;;39.65;16.40;;;3.50;99.90;;;;;;5012207;28;20026;-88
2022/03/30 03:33:10;;;;;;;47.05;16.98;;;3.50;99.90;;;;;;5010445;28;20050;-89
2022/03/30 03:35:36;;;;;;;42.42;17.33;;;3.40;99.90;;;;;;5008494;28;20022;-88
2022/03/30 03:38:03;;;;;;;36.17;15.23;;;3.40;99.90;;;;;;5009209;28;20077;-88
2022/03/30 03:40:32;;;;;;;40.28;16.63;;;3.30;99.90;;;;;;4995794;28;20029;-88
2022/03/30 03:42:59;;;;;;;40.63;16.05;;;3.30;99.90;;;;;;5009139;28;20037;-88
2022/03/30 03:45:24;;;;;;;34.75;15.77;;;3.30;99.90;;;;;;5013571;28;20029;-88
2022/03/30 03:47:51;;;;;;;39.17;16.10;;;3.20;99.90;;;;;;5015858;28;20478;-88
2022/03/30 03:50:16;;;;;;;37.05;16.67;;;3.20;99.90;;;;;;5009630;28;20052;-88
2022/03/30 03:52:42;;;;;;;39.72;15.10;;;3.20;99.90;;;;;;5013872;28;20025;-88
2022/03/30 03:55:09;;;;;;;49.95;16.30;;;3.10;99.90;;;;;;5014905;28;20037;-88
2022/03/30 03:57:35;;;;;;;41.67;16.90;;;3.10;99.90;;;;;;5027191;28;20615;-88
2022/03/30 04:00:02;;;;;;;47.95;17.80;;;3.10;99.90;;;;;;5009551;28;20058;-88
2022/03/30 04:02:27;;;;;;;34.30;16.63;;;3.10;99.90;;;;;;5008418;28;20041;-88
2022/03/30 04:04:53;;;;;;;44.75;16.45;;;3.00;99.90;;;;;;5013017;28;20025;-88
2022/03/30 04:07:19;;;;;;;44.60;17.38;;;3.00;99.90;;;;;;5011905;28;20038;-87
2022/03/30 04:09:44;;;;;;;47.00;17.52;;;2.90;99.90;;;;;;5008357;28;20018;-87
2022/03/30 04:12:10;;;;;;;52.22;17.73;;;2.80;99.90;;;;;;5014321;28;20045;-87
2022/03/30 04:14:35;;;;;;;40.40;15.48;;;2.80;99.90;;;;;;5011359;28;20443;-88
2022/03/30 04:17:01;;;;;;;41.10;15.32;;;2.80;99.90;;;;;;5014766;28;20386;-88
2022/03/30 04:19:26;;;;;;;35.95;14.73;;;2.80;99.90;;;;;;5004800;28;20496;-88
2022/03/30 04:21:52;;;;;;;34.20;13.88;;;2.70;99.90;;;;;;5014873;28;20555;-87
2022/03/30 04:24:17;;;;;;;39.15;16.73;;;2.70;99.90;;;;;;5030386;28;20030;-87
2022/03/30 04:26:43;;;;;;;45.47;15.30;;;2.70;99.90;;;;;;5014088;28;20040;-87
2022/03/30 04:29:09;;;;;;;37.15;15.63;;;2.70;99.90;;;;;;5014431;28;20038;-86
2022/03/30 04:31:34;;;;;;;46.42;15.70;;;2.70;99.90;;;;;;5014467;28;20018;-87
2022/03/30 04:34:00;;;;;;;36.75;15.60;;;2.60;99.90;;;;;;5010135;28;20042;-87
2022/03/30 04:36:26;;;;;;;40.58;16.60;;;2.60;99.90;;;;;;5014452;28;20038;-87
2022/03/30 04:38:52;;;;;;;40.72;15.88;;;2.60;99.90;;;;;;5032872;28;20057;-87
2022/03/30 04:41:18;;;;;;;33.13;15.75;;;2.60;99.90;;;;;;5010279;28;20175;-87
2022/03/30 04:43:43;;;;;;;37.58;15.90;;;2.50;99.90;;;;;;5009196;28;20598;-87
2022/03/30 04:46:09;;;;;;;50.63;16.13;;;2.50;99.90;;;;;;5012208;28;20120;-87
2022/03/30 04:48:38;;;;;;;39.63;14.95;;;2.50;99.90;;;;;;5002965;28;20041;-88
2022/03/30 04:51:04;;;;;;;35.42;13.73;;;2.40;99.90;;;;;;5008255;28;20076;-88
2022/03/30 04:53:30;;;;;;;36.70;14.43;;;2.40;99.90;;;;;;5004732;28;20452;-88
2022/03/30 04:55:55;;;;;;;42.13;16.73;;;2.40;99.90;;;;;;4996596;28;20062;-86
2022/03/30 04:58:21;;;;;;;45.60;16.48;;;2.40;99.90;;;;;;5012496;28;20014;-88
2022/03/30 05:00:47;;;;;;;37.63;16.35;;;2.40;99.90;;;;;;5009463;28;20022;-88
2022/03/30 05:03:13;;;;;;;53.45;16.35;;;2.30;99.90;;;;;;5016718;28;20033;-85
2022/03/30 05:05:39;;;;;;;43.03;15.57;;;2.30;99.90;;;;;;5039441;28;20026;-86
2022/03/30 05:08:05;;;;;;;40.17;15.70;;;2.30;99.90;;;;;;5008170;28;20030;-87
2022/03/30 05:10:30;;;;;;;46.38;15.50;;;2.20;99.90;;;;;;5024262;28;20617;-86
2022/03/30 05:12:56;;;;;;;34.33;14.50;;;2.10;99.90;;;;;;5021603;28;20022;-86
2022/03/30 05:15:23;;;;;;;40.92;16.25;;;2.10;99.90;;;;;;5003987;28;20032;-87
2022/03/30 05:17:49;;;;;;;42.72;15.70;;;2.10;99.90;;;;;;5013320;28;20026;-88
2022/03/30 05:20:16;;;;;;;47.97;16.17;;;2.10;99.90;;;;;;5018821;28;20172;-88
2022/03/30 05:22:42;;;;;;;39.28;16.35;;;2.00;99.90;;;;;;5014284;28;20045;-88
2022/03/30 05:25:09;;;;;;;47.83;16.45;;;2.00;99.90;;;;;;5010670;28;20018;-88
2022/03/30 05:27:34;;;;;;;42.42;15.68;;;1.90;99.90;;;;;;5013257;28;20037;-88
2022/03/30 05:30:02;;;;;;;45.53;15.95;;;1.90;99.90;;;;;;5013943;28;20068;-89
2022/03/30 05:32:28;;;;;;;45.22;17.08;;;1.90;99.90;;;;;;5012406;28;20487;-88
2022/03/30 05:34:54;;;;;;;50.17;17.15;;;1.80;99.90;;;;;;5004773;28;20061;-86
2022/03/30 05:37:19;;;;;;;46.78;17.30;;;1.90;99.90;;;;;;5015134;28;20528;-88
2022/03/30 05:39:46;;;;;;;45.63;16.17;;;1.80;99.90;;;;;;5004530;28;20022;-88
2022/03/30 05:42:14;;;;;;;42.83;17.23;;;1.80;99.90;;;;;;5012022;28;20064;-87
2022/03/30 05:44:40;;;;;;;43.40;16.25;;;1.80;99.90;;;;;;5011555;28;20030;-87
2022/03/30 05:47:09;;;;;;;48.20;16.83;;;1.80;99.90;;;;;;5009998;28;20088;-87
2022/03/30 05:49:36;;;;;;;39.97;15.38;;;1.80;99.90;;;;;;5008662;28;20079;-87
2022/03/30 05:52:03;;;;;;;39.65;17.60;;;1.80;99.90;;;;;;5003325;28;20058;-87
2022/03/30 05:54:28;;;;;;;49.63;18.90;;;1.80;99.90;;;;;;5004494;28;20022;-88
2022/03/30 05:57:02;;;;;;;47.33;17.38;;;1.90;99.90;;;;;;4999068;28;20031;-89
2022/03/30 05:59:40;;;;;;;44.55;16.38;;;1.90;99.90;;;;;;5012022;28;20034;-88
2022/03/30 06:02:08;;;;;;;47.03;17.52;;;1.90;99.90;;;;;;5010222;28;20037;-88
2022/03/30 06:04:34;;;;;;;56.17;17.45;;;2.00;99.90;;;;;;5011481;28;20134;-88
2022/03/30 06:07:00;;;;;;;48.42;18.27;;;2.10;99.90;;;;;;5000313;28;20022;-87
2022/03/30 06:09:27;;;;;;;47.90;16.63;;;2.20;99.90;;;;;;5008666;28;20453;-89
2022/03/30 06:11:53;;;;;;;43.65;16.55;;;2.30;99.90;;;;;;5004213;28;20037;-88
2022/03/30 06:14:20;;;;;;;45.22;18.92;;;2.30;99.90;;;;;;5008439;28;20031;-90
2022/03/30 06:16:45;;;;;;;45.17;18.45;;;2.40;99.90;;;;;;5011416;28;20133;-88
2022/03/30 06:19:12;;;;;;;46.47;17.00;;;2.50;99.90;;;;;;5009815;28;20452;-87
2022/03/30 06:21:39;;;;;;;43.65;16.48;;;2.60;99.90;;;;;;5004932;28;20079;-88
2022/03/30 06:24:06;;;;;;;46.33;17.15;;;2.70;99.90;;;;;;5006638;28;20050;-89
2022/03/30 06:26:31;;;;;;;44.97;17.52;;;2.80;99.90;;;;;;5003669;28;20035;-88
2022/03/30 06:28:57;;;;;;;49.50;18.10;;;2.90;99.90;;;;;;5002876;28;20018;-87
2022/03/30 06:31:23;;;;;;;40.95;16.63;;;3.00;99.90;;;;;;5022787;28;20025;-87
2022/03/30 06:33:49;;;;;;;48.55;19.10;;;3.00;99.90;;;;;;5002716;28;20054;-87
2022/03/30 06:36:16;;;;;;;46.10;17.50;;;3.10;99.90;;;;;;5007181;28;20088;-87
2022/03/30 06:38:42;;;;;;;36.10;17.20;;;3.20;99.90;;;;;;5005498;28;20026;-87
2022/03/30 06:41:08;;;;;;;50.88;19.20;;;3.30;99.90;;;;;;5012432;28;20508;-87
2022/03/30 06:43:36;;;;;;;40.88;16.65;;;3.40;99.90;;;;;;5011366;28;20038;-87
2022/03/30 06:46:02;;;;;;;42.95;17.63;;;3.50;99.90;;;;;;5009760;28;20057;-87
2022/03/30 06:48:28;;;;;;;40.90;17.70;;;3.50;99.90;;;;;;5001908;28;20109;-87
2022/03/30 06:50:54;;;;;;;46.50;16.67;;;3.70;99.90;;;;;;5009132;28;20034;-87
2022/03/30 06:53:19;;;;;;;47.65;17.95;;;3.70;99.90;;;;;;4999621;28;20083;-87
2022/03/30 06:55:45;;;;;;;43.88;17.58;;;3.80;99.90;;;;;;4997151;28;20069;-87
2022/03/30 06:58:10;;;;;;;47.88;18.42;;;3.90;99.90;;;;;;4991939;28;20100;-87
2022/03/30 07:00:36;;;;;;;40.03;17.73;;;4.00;99.90;;;;;;5008126;28;20022;-87
2022/03/30 07:03:01;;;;;;;45.60;18.85;;;4.10;99.90;;;;;;5003596;28;20034;-87
2022/03/30 07:05:27;;;;;;;44.47;18.27;;;4.20;99.90;;;;;;4999990;28;20054;-87
2022/03/30 07:10:38;;;;;;;40.72;16.08;;;4.30;99.90;;;;;;5012245;28;20080;-87
2022/03/30 07:13:03;;;;;;;43.33;17.10;;;4.40;99.90;;;;;;5029074;28;20846;-87
2022/03/30 07:15:30;;;;;;;35.05;14.50;;;4.60;99.90;;;;;;5006174;28;20022;-87
2022/03/30 07:18:00;;;;;;;40.40;17.60;;;4.70;99.90;;;;;;5005114;28;20112;-87
2022/03/30 07:20:27;;;;;;;43.95;17.00;;;4.80;99.90;;;;;;5012566;28;20034;-87
2022/03/30 07:22:53;;;;;;;37.70;16.15;;;5.00;99.90;;;;;;5017388;28;20042;-88
2022/03/30 07:25:22;;;;;;;34.55;14.23;;;5.10;99.90;;;;;;5009578;28;20026;-87
2022/03/30 07:27:51;;;;;;;39.78;15.80;;;5.20;99.90;;;;;;5013880;28;20033;-87
2022/03/30 07:30:19;;;;;;;31.90;16.20;;;5.30;99.90;;;;;;5012786;28;20036;-88
2022/03/30 07:32:47;;;;;;;34.35;14.60;;;5.40;99.90;;;;;;5011912;28;20080;-87
2022/03/30 07:35:15;;;;;;;32.42;15.40;;;5.50;99.90;;;;;;5030066;28;20118;-88
2022/03/30 07:37:42;;;;;;;43.70;16.58;;;5.50;99.90;;;;;;5014153;28;20030;-87
2022/03/30 07:40:09;;;;;;;36.65;15.55;;;5.60;99.90;;;;;;5034344;28;20057;-88
2022/03/30 07:42:35;;;;;;;31.48;15.65;;;5.70;99.90;;;;;;5013040;28;20433;-88
2022/03/30 07:45:03;;;;;;;32.03;14.02;;;5.80;99.90;;;;;;5011303;28;20116;-87
2022/03/30 07:47:29;;;;;;;37.25;15.63;;;6.00;99.90;;;;;;5009204;28;20403;-87
2022/03/30 07:49:55;;;;;;;36.75;14.88;;;6.00;99.90;;;;;;5008707;28;20382;-87
2022/03/30 07:52:21;;;;;;;34.95;14.38;;;6.20;99.90;;;;;;5013531;28;20026;-88
2022/03/30 07:54:48;;;;;;;34.10;13.13;;;6.30;99.90;;;;;;5021258;28;20496;-88
2022/03/30 07:57:13;;;;;;;32.95;13.85;;;6.40;99.90;;;;;;5017487;28;20026;-88
2022/03/30 07:59:39;;;;;;;30.48;12.35;;;6.50;99.90;;;;;;5031586;28;20025;-88
2022/03/30 08:02:05;;;;;;;31.23;13.13;;;6.60;99.90;;;;;;5011278;28;20449;-88
2022/03/30 08:04:30;;;;;;;28.65;13.32;;;6.70;99.90;;;;;;5028352;28;20034;-88
2022/03/30 08:06:56;;;;;;;33.20;13.68;;;6.80;99.90;;;;;;5030003;28;20257;-87
2022/03/30 08:09:22;;;;;;;34.53;12.93;;;6.80;99.90;;;;;;5003308;28;20030;-87
2022/03/30 08:11:47;;;;;;;26.60;13.48;;;6.90;99.90;;;;;;5012889;28;20022;-87
2022/03/30 08:14:13;;;;;;;30.58;14.38;;;7.00;99.90;;;;;;5014723;28;20042;-87
2022/03/30 08:16:39;;;;;;;30.58;13.13;;;7.10;99.90;;;;;;5012328;28;20018;-87
2022/03/30 08:19:06;;;;;;;30.45;13.38;;;7.20;99.90;;;;;;5012453;28;20473;-84
2022/03/30 08:24:17;;;;;;;28.50;12.73;;;7.50;99.90;;;;;;5014812;28;20080;-87
2022/03/30 08:26:43;;;;;;;27.55;14.27;;;7.60;99.90;;;;;;5013279;28;20026;-87
2022/03/30 08:29:10;;;;;;;26.02;13.75;;;7.60;99.90;;;;;;5011709;28;20036;-87
2022/03/30 08:31:35;;;;;;;25.00;12.02;;;7.70;99.90;;;;;;5005485;28;20057;-88
2022/03/30 08:34:01;;;;;;;28.23;12.45;;;7.90;99.90;;;;;;5008094;28;20098;-87
2022/03/30 08:36:29;;;;;;;25.10;12.80;;;8.00;99.90;;;;;;5010291;28;20117;-88
2022/03/30 08:38:56;;;;;;;23.42;13.05;;;8.10;99.90;;;;;;5029058;28;20038;-88
2022/03/30 08:41:21;;;;;;;30.30;13.50;;;8.30;99.90;;;;;;5011310;28;20474;-88
2022/03/30 08:43:48;;;;;;;26.73;11.75;;;8.50;99.90;;;;;;5009272;28;20042;-88
2022/03/30 08:46:14;;;;;;;25.90;12.15;;;8.70;99.90;;;;;;5011389;28;20172;-87
2022/03/30 08:48:40;;;;;;;21.95;11.77;;;8.80;99.90;;;;;;5008886;28;20069;-89
2022/03/30 08:51:07;;;;;;;23.63;12.00;;;8.90;99.90;;;;;;5011002;28;20026;-88
2022/03/30 08:53:33;;;;;;;29.75;11.20;;;8.90;99.90;;;;;;5011450;28;20022;-88
2022/03/30 08:55:59;;;;;;;26.45;11.85;;;8.90;99.90;;;;;;5009194;28;20474;-88
2022/03/30 08:58:24;;;;;;;24.08;11.52;;;9.00;99.90;;;;;;5007437;28;20042;-88
2022/03/30 09:00:51;;;;;;;23.08;10.93;;;9.00;99.90;;;;;;5011074;28;20037;-88
2022/03/30 09:03:17;;;;;;;21.20;11.63;;;9.10;99.90;;;;;;5008964;28;20532;-88
2022/03/30 09:05:43;;;;;;;21.15;10.57;;;9.20;99.90;;;;;;5010382;28;20030;-88
2022/03/30 09:08:24;;;;;;;26.30;12.40;;;9.30;99.90;;;;;;5003633;28;20034;-88
2022/03/30 09:10:53;;;;;;;26.52;10.75;;;9.20;99.90;;;;;;5004425;28;20019;-88
2022/03/30 09:13:19;;;;;;;20.75;11.70;;;9.10;99.90;;;;;;5010865;28;20032;-88
2022/03/30 09:15:47;;;;;;;22.02;11.05;;;9.10;99.90;;;;;;5007063;28;20026;-87
2022/03/30 09:18:16;;;;;;;21.95;11.43;;;9.00;99.90;;;;;;5010444;28;20030;-88
2022/03/30 09:20:47;;;;;;;24.98;11.75;;;9.00;99.90;;;;;;5010521;28;20018;-88
2022/03/30 09:23:14;;;;;;;27.08;11.55;;;9.10;99.90;;;;;;5010404;28;20084;-88
2022/03/30 09:25:44;;;;;;;27.42;12.15;;;9.20;99.90;;;;;;5009220;28;20022;-88
2022/03/30 09:28:10;;;;;;;24.45;11.48;;;9.30;99.90;;;;;;5007276;28;20040;-88
2022/03/30 09:30:36;;;;;;;20.08;10.13;;;9.50;99.90;;;;;;5010014;28;20113;-88
2022/03/30 09:33:02;;;;;;;25.90;12.10;;;9.70;99.90;;;;;;5010256;28;20044;-87
2022/03/30 09:35:38;;;;;;;22.42;10.55;;;9.90;99.90;;;;;;5012133;28;20144;-88
2022/03/30 09:38:16;;;;;;;18.45;9.77;;;10.00;99.90;;;;;;5009951;28;20494;-88
2022/03/30 09:41:03;;;;;;;25.70;9.95;;;10.10;99.90;;;;;;5018063;28;20033;-87
2022/03/30 09:43:31;;;;;;;25.08;10.73;;;10.10;99.90;;;;;;5005678;28;20088;-88
2022/03/30 09:46:03;;;;;;;21.65;10.23;;;10.10;99.90;;;;;;5008590;28;20018;-87
2022/03/30 09:48:34;;;;;;;19.77;10.82;;;10.20;99.90;;;;;;5013119;28;20030;-88
2022/03/30 09:51:02;;;;;;;20.80;10.50;;;10.30;99.90;;;;;;5014089;28;20041;-88
2022/03/30 09:53:30;;;;;;;19.30;9.52;;;10.30;99.30;;;;;;5008852;28;20049;-89
2022/03/30 09:56:07;;;;;;;21.70;10.60;;;10.30;99.00;;;;;;5013974;28;20030;-87
2022/03/30 09:58:38;;;;;;;24.15;11.07;;;10.40;98.30;;;;;;5010098;28;20021;-87
2022/03/30 10:01:09;;;;;;;24.98;11.27;;;10.40;98.00;;;;;;5004471;28;20329;-87
2022/03/30 10:03:55;;;;;;;26.23;10.30;;;10.60;98.20;;;;;;5007618;28;20034;-89
2022/03/30 10:06:24;;;;;;;18.85;10.25;;;10.70;97.50;;;;;;5006160;28;20045;-87
2022/03/30 10:08:51;;;;;;;19.15;9.15;;;10.70;97.50;;;;;;5025361;28;20026;-87
2022/03/30 10:11:17;;;;;;;14.77;8.38;;;10.70;97.80;;;;;;5011332;28;20021;-87
2022/03/30 10:13:48;;;;;;;21.52;10.15;;;10.60;97.80;;;;;;5012418;28;20029;-88
2022/03/30 10:16:17;;;;;;;19.02;9.00;;;10.60;97.80;;;;;;5008610;28;20026;-87
2022/03/30 10:18:43;;;;;;;14.98;9.10;;;10.60;97.40;;;;;;5013746;28;20108;-87
2022/03/30 10:21:17;;;;;;;18.95;9.43;;;10.60;97.40;;;;;;5002927;28;20490;-87
2022/03/30 10:23:58;;;;;;;18.10;9.80;;;10.60;96.90;;;;;;5013820;28;20046;-87
2022/03/30 10:26:34;;;;;;;17.67;8.73;;;10.60;97.10;;;;;;5008781;28;20030;-87
2022/03/30 10:29:11;;;;;;;17.52;9.60;;;10.60;97.30;;;;;;5008833;28;20022;-88
2022/03/30 10:31:37;;;;;;;19.40;9.25;;;10.70;97.10;;;;;;5009044;28;20022;-88
2022/03/30 10:34:22;;;;;;;19.27;10.05;;;10.70;96.40;;;;;;5011257;28;20415;-89
2022/03/30 10:37:07;;;;;;;19.92;9.90;;;10.50;96.30;;;;;;5009742;28;20169;-88
2022/03/30 10:39:33;;;;;;;22.08;10.93;;;10.50;96.40;;;;;;5008485;28;20086;-88
2022/03/30 10:42:08;;;;;;;18.85;10.05;;;10.50;96.50;;;;;;5025758;28;20432;-89
2022/03/30 10:44:49;;;;;;;18.58;10.60;;;10.40;96.70;;;;;;5005144;28;20034;-88
2022/03/30 10:47:23;;;;;;;19.05;10.23;;;10.40;96.80;;;;;;5023832;28;20022;-88
2022/03/30 10:49:54;;;;;;;20.83;10.18;;;10.40;96.90;;;;;;5010223;28;20026;-87
2022/03/30 10:52:26;;;;;;;22.15;11.27;;;10.50;96.90;;;;;;5013281;28;20516;-87
2022/03/30 10:55:11;;;;;;;17.48;9.30;;;10.60;96.50;;;;;;5031010;28;20061;-87
2022/03/30 10:57:47;;;;;;;20.08;9.45;;;10.80;96.50;;;;;;5029961;28;20044;-89
2022/03/30 11:00:20;;;;;;;16.77;8.77;;;10.80;95.90;;;;;;5009725;28;20026;-89
2022/03/30 11:02:45;;;;;;;;;;;10.90;95.60;;;;;;5012059;28;20084;-88
2022/03/30 11:05:12;;;;;;;13.70;7.47;;;11.00;95.40;;;;;;5013386;28;19910;-88
2022/03/30 11:07:38;;;;;;;13.73;6.22;;;11.00;93.60;;;;;;5010376;28;20034;-88
2022/03/30 11:10:13;;;;;;;10.80;5.10;;;10.90;93.00;;;;;;5011961;28;20025;-87
2022/03/30 11:13:03;;;;;;;10.43;5.30;;;10.80;92.20;;;;;;5030679;28;20143;-88
2022/03/30 11:15:30;;;;;;;8.40;5.53;;;10.80;92.30;;;;;;5030847;28;20106;-88
2022/03/30 11:18:17;;;;;;;10.75;4.50;;;10.90;92.00;;;;;;5010434;28;20022;-87
2022/03/30 11:21:08;;;;;;;9.15;4.38;;;11.00;91.70;;;;;;5015760;28;20045;-87
2022/03/30 11:23:55;;;;;;;8.18;3.70;;;11.20;91.70;;;;;;5029728;28;20034;-88
2022/03/30 11:26:23;;;;;;;10.95;3.67;;;11.40;89.50;;;;;;5031826;28;20392;-88
2022/03/30 11:28:48;;;;;;;8.63;3.53;;;11.40;87.00;;;;;;5006557;28;20033;-88
2022/03/30 11:31:22;;;;;;;8.35;3.38;;;11.40;85.20;;;;;;5004823;28;20037;-88
2022/03/30 11:34:36;;;;;;;7.03;3.28;;;11.40;86.10;;;;;;4996927;28;20068;-88
2022/03/30 11:37:02;;;;;;;7.05;3.40;;;11.60;87.40;;;;;;5000149;28;20050;-89
2022/03/30 11:39:34;;;;;;;5.65;3.17;;;11.90;88.00;;;;;;5009281;28;20500;-87
2022/03/30 11:42:00;;;;;;;7.05;3.45;;;12.00;85.10;;;;;;5006037;28;20501;-88
2022/03/30 11:47:16;;;;;;;6.28;3.63;;;12.10;84.40;;;;;;5012169;28;20087;-88
2022/03/30 11:49:52;;;;;;;8.65;4.82;;;12.10;81.80;;;;;;5029571;28;20050;-89
2022/03/30 11:52:19;;;;;;;7.97;4.10;;;12.00;82.40;;;;;;5011907;28;20026;-89
2022/03/30 11:54:49;;;;;;;11.60;4.93;;;12.20;83.20;;;;;;4994339;28;20034;-89
2022/03/30 11:57:15;;;;;;;10.27;5.05;;;12.30;82.30;;;;;;5013779;28;20025;-89
2022/03/30 11:59:41;;;;;;;11.23;5.60;;;12.20;82.70;;;;;;5010720;28;20121;-88
2022/03/30 12:02:07;;;;;;;12.02;5.60;;;12.20;82.00;;;;;;5008664;28;20053;-89
2022/03/30 12:04:34;;;;;;;10.95;5.57;;;12.20;82.10;;;;;;5011440;28;20042;-88
2022/03/30 12:07:00;;;;;;;8.55;4.95;;;12.30;82.70;;;;;;5011172;28;20018;-88
2022/03/30 12:09:26;;;;;;;10.40;5.75;;;12.50;82.50;;;;;;5011144;28;20485;-89
2022/03/30 12:11:52;;;;;;;11.10;5.30;;;12.60;82.10;;;;;;5011960;28;20061;-89
2022/03/30 12:14:25;;;;;;;14.40;5.65;;;12.80;82.40;;;;;;5008026;28;20018;-89
2022/03/30 12:16:51;;;;;;;9.18;5.38;;;13.00;81.50;;;;;;5010095;28;20042;-89
2022/03/30 12:19:17;;;;;;;10.80;6.10;;;13.10;80.90;;;;;;5011253;28;20029;-88
2022/03/30 12:21:42;;;;;;;9.45;5.50;;;13.10;79.30;;;;;;5011550;28;20072;-89
2022/03/30 12:24:12;;;;;;;10.23;5.28;;;13.10;78.80;;;;;;5009649;28;20173;-88
2022/03/30 12:26:38;;;;;;;10.82;5.38;;;13.10;79.30;;;;;;5012433;28;20022;-89
2022/03/30 12:29:09;;;;;;;11.13;5.22;;;13.30;79.60;;;;;;5026446;28;20029;-89
2022/03/30 12:31:41;;;;;;;13.63;4.82;;;13.30;77.00;;;;;;5008281;28;20036;-88
2022/03/30 12:34:11;;;;;;;12.05;5.72;;;13.30;76.80;;;;;;5009282;28;20069;-89
2022/03/30 12:36:47;;;;;;;13.73;6.05;;;13.30;76.00;;;;;;5011463;28;20413;-89
2022/03/30 12:39:34;;;;;;;14.60;5.93;;;13.30;76.20;;;;;;5010482;28;20393;-89
2022/03/30 12:42:02;;;;;;;13.40;6.50;;;13.30;75.30;;;;;;5009883;28;20048;-88
2022/03/30 12:44:51;;;;;;;15.02;6.32;;;13.30;75.50;;;;;;5011071;28;20041;-89
2022/03/30 12:47:27;;;;;;;12.25;6.63;;;13.40;75.30;;;;;;5026569;28;20488;-89
2022/03/30 12:49:54;;;;;;;13.57;6.15;;;13.30;75.70;;;;;;5012177;28;20049;-88
2022/03/30 12:52:20;;;;;;;12.23;5.93;;;13.40;76.20;;;;;;5011770;28;20137;-89
2022/03/30 12:54:46;;;;;;;10.48;5.45;;;13.40;76.30;;;;;;5011964;28;20108;-89